首页
METAR-TAF:

METAR-TAF

机场 :

大急流城, 密歇根州, 美国

纬度: 42-52-51N, 经度: 085-31-22W, 海拔: 242米

当前天气观测

该预报发布于9分钟前的16:53 UTC
风速9节,风向东转东南
温度 9°C
湿度 61%
气压 1026 hPa
能見度: 16.1公里
多云层高于3500英尺
阴天层高于20000英尺

METAR: KGRR 201653Z 11009KT 10SM BKN035 OVC200 09/02 A3030 RMK AO2 SLP264 T00890022

时间: 13:02 (17:02 UTC)

预报

该预报发布于5小时和28分钟前的11:34 UTC
预报有效从20日的 12点(UTC)到 21日的 12点(UTC)
风速5节,风向北转东北
能見度: 10公里
多云层高于6000英尺
从 21日的 0000点(UTC)
风速10节,风向,有时为20节阵风
能見度: 10公里
阴天层高于7000英尺
附近有阵雨
从 21日的 0200点(UTC)
风速9节,风向东南
能見度: 10公里
阴天层高于2500英尺
小阵雨
从 21日的 0300点(UTC)
风速10节,风向东转东南
能見度: 9.7公里
阴天层高于1500英尺
小阵雨, 轻雾
从 21日的 0500点(UTC)
风速7节,风向南转南东
能見度: 8.0公里
阴天层高于700英尺
小阵雨, 轻雾
从 21日的 1000点(UTC)
风速11节,风向西转西南
能見度: 10公里
阴天层高于1000英尺

TAF: KGRR 201134Z 2012/2112 02005KT P6SM BKN060 FM210000 09010G20KT P6SM VCSH OVC070 FM210200 13009KT P6SM -SHRA OVC025 FM210300 12010KT 6SM -SHRA BR OVC015 FM210500 16007KT 5SM -SHRA BR OVC007 FM211000 25011KT P6SM OVC010

超过4000个机场的气象观测和天气预报(METAR&TAF报告)。

可查询的气象台以黄色和红色小点在地图上表示。

将鼠标移到小点上方,可查看气象台名称。

然后点击查看天气观测和预报。

如需切换地图:点击带黑十字的绿色按钮放大地图;点击带横线的绿色按钮缩小地图;或者点击绿色箭头查看邻近地区的地图。


METAR-TAF: